Airfield :







YOU CAN JOIN US ON...

 
LOGIN :

Register | Disclaimer

   EN    FR    IT 

 









Legend :    VFR   Marginal VFR   IFR   Intensive IFR   Very Intensive IFR
Visi :
Ceiling :
>= 8 km
>= 3000ft
5 to 8 km
1000 to 3000 ft
1500m to 5 km
500 to 1000 ft
800 to 1500m
200 to 500 ft
< 800m
< 200 ft
Symbols :   Thunderstorms  Fog  Heavy snow  Heavy precipitations  Wind > 20 kt






- Airport Elevation : 241 ft
- IATA code : CEF


KCEF - Westover ARB/Metropolitan

CURRENT METAR :
  • 222356Z 30016G26KT 10SM FEW060 04/M10 A2978 RMK AO2A PK WND 29031/2257 SLP092 T00431098 10078 20043 51021 $

EXPIRED METARs :
  • 222256Z 31018G29KT 10SM BKN065 05/M10 A2977 RMK AO2A PK WND 30033/04 SLP089 T00491104 $

TAF AMD TAF KCEF
Valid from the 22 at 23:00 until the 24 at 00:00 UTC


222352Z 2223/2324 29010G15KT 9999 BKN065 620653 510105 QNH2978INS
TEMPO 2300/2305 29015G25KT 520006
BECMG 2304/2305 27010G15KT 9999 SCT050 510105 QNH2979INS
BECMG 2313/2314 29015G25KT 9999 SCT060 520006 QNH2981INS
BECMG 2321/2322 26009KT 9999 BKN070 620702 QNH2982INS TX12/2318Z TNM02/2310Z
KZBW FIR / North America



MET'MAP, your aeronautical weather chart ! - Copyright ORBIFLY December 2007 - Disclaimer

ORBIFLY MET'MAP TEAM :

Programming & Development : Alexandra Zaïnal
Concept & original design : Baudouin d'Aumeries
Assistance for programming : Marc-Olivier Méhu
Technical & hardware support : Manuel Goepfert

Contact : metmap@orbifly.com




SOURCES & CREDITS :

   NOAA